Time;durP1;ratioP1;P1;durP2;ratioP2;P2;SDS_P1;SDS_P2;PMS_P1;PMS_P2;Temp;Humidity;BMP_temperature;BMP_pressure;BME280_temperature;BME280_humidity;BME280_pressure;Samples;Min_cycle;Max_cycle;Signal;HPM_P1;HPM_P2
2023/01/21 00:00:33;;;;;;;48.63;28.48;;;2.00;99.90;;;;;;5052111;28;20435;-66
2023/01/21 00:02:59;;;;;;;52.15;28.42;;;1.30;99.90;;;;;;5045315;28;20051;-67
2023/01/21 00:05:24;;;;;;;52.00;27.17;;;1.20;99.90;;;;;;5015591;28;20040;-67
2023/01/21 00:07:50;;;;;;;51.28;27.65;;;1.80;99.90;;;;;;5031554;28;20344;-67
2023/01/21 00:10:16;;;;;;;45.83;27.05;;;1.30;99.90;;;;;;5032035;28;20068;-67
2023/01/21 00:12:41;;;;;;;56.25;29.02;;;1.30;99.90;;;;;;5034665;28;20079;-67
2023/01/21 00:15:07;;;;;;;59.63;28.63;;;1.70;99.90;;;;;;5026083;28;20044;-67
2023/01/21 00:17:34;;;;;;;53.40;28.00;;;1.30;99.90;;;;;;5048274;28;20457;-67
2023/01/21 00:20:04;;;;;;;51.83;29.65;;;1.90;99.90;;;;;;5031828;28;20566;-67
2023/01/21 00:22:30;;;;;;;50.78;29.27;;;1.80;99.90;;;;;;5031210;28;20038;-67
2023/01/21 00:24:56;;;;;;;53.53;29.02;;;1.60;99.90;;;;;;5028821;28;20073;-66
2023/01/21 00:27:22;;;;;;;43.83;24.40;;;1.80;99.90;;;;;;5015517;28;20458;-67
2023/01/21 00:29:47;;;;;;;43.70;25.30;;;1.40;99.90;;;;;;5031312;28;20042;-67
2023/01/21 00:32:13;;;;;;;39.80;23.20;;;1.70;99.90;;;;;;5060811;28;20120;-66
2023/01/21 00:34:39;;;;;;;46.50;27.13;;;1.60;99.90;;;;;;5046279;28;20044;-67
2023/01/21 00:37:05;;;;;;;45.15;26.45;;;1.70;99.90;;;;;;5048223;28;20029;-66
2023/01/21 00:39:30;;;;;;;48.78;26.73;;;0.90;99.90;;;;;;5047934;28;20041;-67
2023/01/21 00:41:56;;;;;;;54.03;28.80;;;1.00;99.90;;;;;;5032543;28;20033;-67
2023/01/21 00:44:21;;;;;;;54.33;29.00;;;1.80;99.90;;;;;;5030468;28;20116;-67
2023/01/21 00:46:47;;;;;;;51.47;29.60;;;1.80;99.90;;;;;;5033049;28;20037;-66
2023/01/21 00:49:13;;;;;;;52.92;28.80;;;1.70;99.90;;;;;;5051164;28;20068;-67
2023/01/21 00:51:38;;;;;;;52.67;27.17;;;1.90;99.90;;;;;;5051096;28;20045;-67
2023/01/21 00:54:04;;;;;;;51.90;26.27;;;1.60;99.90;;;;;;5035088;28;20085;-67
2023/01/21 00:56:29;;;;;;;54.22;28.15;;;1.50;1.00;;;;;;5014576;28;20052;-67
2023/01/21 00:58:55;;;;;;;49.45;29.33;;;1.50;1.00;;;;;;5031242;28;20038;-67
2023/01/21 01:01:21;;;;;;;56.50;29.63;;;1.80;1.00;;;;;;5031187;28;20037;-67
2023/01/21 01:03:48;;;;;;;54.30;28.92;;;2.00;1.00;;;;;;5042231;28;20041;-67
2023/01/21 01:06:19;;;;;;;53.08;28.80;;;1.90;1.00;;;;;;5046708;28;20053;-67
2023/01/21 01:08:46;;;;;;;60.50;29.65;;;1.10;1.00;;;;;;5028153;28;20136;-67
2023/01/21 01:11:12;;;;;;;57.63;32.60;;;1.30;1.00;;;;;;5014246;28;20044;-67
2023/01/21 01:13:39;;;;;;;62.35;32.25;;;1.40;1.00;;;;;;5047328;28;20125;-67
2023/01/21 01:16:06;;;;;;;58.22;31.40;;;1.40;1.00;;;;;;5059424;28;20041;-67
2023/01/21 01:18:34;;;;;;;54.60;30.30;;;1.20;1.00;;;;;;5033122;28;20055;-67
2023/01/21 01:20:59;;;;;;;53.80;29.73;;;1.90;4.30;;;;;;5030915;28;20056;-66
2023/01/21 01:23:26;;;;;;;55.25;29.05;;;1.00;15.30;;;;;;5030890;28;20112;-67
2023/01/21 01:25:56;;;;;;;56.20;30.38;;;1.00;30.70;;;;;;5030795;28;20109;-68
2023/01/21 01:28:22;;;;;;;58.97;29.95;;;1.20;46.20;;;;;;5044933;28;20072;-68
2023/01/21 01:30:47;;;;;;;59.78;29.70;;;1.10;78.30;;;;;;5050371;28;20091;-68
2023/01/21 01:33:13;;;;;;;60.47;31.40;;;1.90;94.60;;;;;;5051192;28;20073;-67
2023/01/21 01:35:40;;;;;;;56.33;29.40;;;1.60;99.90;;;;;;5047906;28;20033;-66
2023/01/21 01:38:08;;;;;;;57.28;30.05;;;1.00;99.90;;;;;;5034258;28;20087;-66
2023/01/21 01:40:34;;;;;;;49.65;28.73;;;1.50;99.90;;;;;;5034690;28;20095;-66
2023/01/21 01:43:00;;;;;;;57.90;30.67;;;1.00;99.90;;;;;;5051331;28;20052;-67
2023/01/21 01:45:26;;;;;;;55.17;29.15;;;2.00;99.90;;;;;;5033020;28;20037;-67
2023/01/21 01:47:58;;;;;;;54.45;28.63;;;1.30;99.90;;;;;;5053732;28;20033;-68
2023/01/21 01:50:29;;;;;;;58.33;29.92;;;1.90;99.90;;;;;;5055893;28;20029;-67
2023/01/21 01:52:56;;;;;;;59.72;30.73;;;1.90;99.90;;;;;;5054508;28;20041;-67
2023/01/21 01:55:22;;;;;;;61.30;31.60;;;0.90;99.90;;;;;;5037671;28;20071;-68
2023/01/21 01:57:51;;;;;;;55.22;31.17;;;1.70;99.90;;;;;;5034672;28;20033;-68
2023/01/21 02:00:17;;;;;;;64.80;33.88;;;2.10;99.90;;;;;;5051175;28;20052;-68
2023/01/21 02:03:43;;;;;;;63.83;34.63;;;2.10;99.90;;;;;;5054705;28;20049;-67
2023/01/21 02:05:31;;;;;;;58.95;33.95;;;1.40;1.00;;;;;;5024474;28;20575;-67
2023/01/21 02:07:56;;;;;;;65.18;34.53;;;1.80;1.00;;;;;;5033213;28;20058;-68
2023/01/21 02:10:22;;;;;;;71.18;36.45;;;2.40;1.00;;;;;;5050757;28;20030;-68
2023/01/21 02:12:48;;;;;;;60.78;34.13;;;2.10;1.00;;;;;;5034194;28;20041;-68
2023/01/21 02:15:13;;;;;;;56.50;32.45;;;1.80;1.00;;;;;;5025749;28;20030;-67
2023/01/21 02:17:44;;;;;;;60.22;33.42;;;1.80;1.00;;;;;;5028533;28;20038;-67
2023/01/21 02:20:32;;;;;;;60.53;33.50;;;2.40;1.00;;;;;;5050104;28;20435;-66
2023/01/21 02:23:31;;;;;;;57.22;32.13;;;2.10;1.00;;;;;;5032002;28;20103;-67
2023/01/21 02:26:26;;;;;;;54.33;31.30;;;2.30;1.00;;;;;;5056633;28;20048;-69
2023/01/21 02:29:10;;;;;;;56.20;31.45;;;1.20;1.00;;;;;;5044524;28;20050;-67
2023/01/21 02:32:01;;;;;;;55.42;30.15;;;1.80;1.00;;;;;;5031859;28;20041;-68
2023/01/21 02:34:45;;;;;;;60.20;32.28;;;1.30;1.00;;;;;;5055635;28;20040;-67
2023/01/21 02:37:12;;;;;;;62.20;33.72;;;1.10;1.00;;;;;;5049716;28;20466;-67
2023/01/21 02:39:47;;;;;;;58.75;31.65;;;1.40;1.00;;;;;;5033651;28;20478;-68
2023/01/21 02:42:36;;;;;;;55.80;30.90;;;2.10;1.00;;;;;;5033827;28;20037;-68
2023/01/21 02:45:07;;;;;;;60.15;32.90;;;2.00;1.00;;;;;;5034879;28;20144;-67
2023/01/21 02:47:42;;;;;;;65.78;33.08;;;1.80;1.00;;;;;;5029807;28;20565;-67
2023/01/21 02:50:16;;;;;;;56.78;32.08;;;1.20;1.00;;;;;;5064007;28;20039;-67
2023/01/21 02:52:42;;;;;;;74.25;33.67;;;2.00;1.00;;;;;;5053719;28;20513;-68
2023/01/21 02:55:14;;;;;;;64.22;32.92;;;2.00;1.00;;;;;;5049261;28;20046;-67
2023/01/21 02:57:51;;;;;;;57.03;32.13;;;2.40;14.90;;;;;;5032946;28;20044;-66
2023/01/21 03:00:19;;;;;;;57.35;31.20;;;1.40;31.90;;;;;;5033164;28;20167;-66
2023/01/21 03:03:14;;;;;;;53.83;29.05;;;2.30;40.50;;;;;;5034620;28;20079;-67
2023/01/21 03:05:55;;;;;;;54.03;28.52;;;2.00;24.30;;;;;;5044828;28;20044;-68
2023/01/21 03:08:31;;;;;;;54.97;31.00;;;2.10;1.00;;;;;;5049614;28;20080;-67
2023/01/21 03:11:12;;;;;;;49.13;29.35;;;1.90;1.00;;;;;;5050283;28;20038;-68
2023/01/21 03:19:22;;;;;;;52.40;30.10;;;1.20;1.00;;;;;;5034307;28;20072;-68
2023/01/21 03:21:49;;;;;;;57.45;29.75;;;1.10;25.00;;;;;;5031446;28;20049;-68
2023/01/21 03:24:15;;;;;;;56.60;29.58;;;2.20;53.80;;;;;;5069616;28;20552;-68
2023/01/21 03:26:46;;;;;;;54.50;29.10;;;1.40;43.40;;;;;;5060287;28;20049;-67
2023/01/21 03:29:18;;;;;;;44.15;26.70;;;1.00;23.30;;;;;;5016020;28;20042;-67
2023/01/21 03:31:49;;;;;;;65.13;30.13;;;1.10;12.50;;;;;;5033080;28;20042;-68
2023/01/21 03:34:17;;;;;;;55.53;30.48;;;1.20;19.30;;;;;;5012950;28;20092;-67
2023/01/21 03:37:03;;;;;;;57.08;31.33;;;1.00;66.00;;;;;;5029750;28;20033;-66
2023/01/21 03:39:42;;;;;;;61.67;32.55;;;1.10;85.90;;;;;;5049322;28;20141;-66
2023/01/21 03:42:09;;;;;;;55.50;30.33;;;1.80;99.90;;;;;;5030396;28;20060;-67
2023/01/21 03:44:35;;;;;;;55.17;31.45;;;1.30;99.90;;;;;;5025744;28;20102;-67
2023/01/21 03:47:20;;;;;;;52.33;29.63;;;1.00;99.90;;;;;;5031061;28;20039;-67
2023/01/21 03:49:52;;;;;;;51.22;27.80;;;0.90;98.00;;;;;;5051253;28;20045;-67
2023/01/21 03:52:20;;;;;;;52.90;28.60;;;0.90;94.70;;;;;;5052280;28;20072;-67
2023/01/21 03:54:47;;;;;;;55.80;29.42;;;1.80;98.70;;;;;;5052256;28;20095;-68
2023/01/21 03:57:12;;;;;;;59.60;30.75;;;1.80;99.90;;;;;;5052143;28;20486;-67
2023/01/21 03:59:38;;;;;;;56.20;31.77;;;1.10;99.90;;;;;;5032138;28;20040;-67
2023/01/21 04:02:03;;;;;;;57.35;31.63;;;2.10;99.90;;;;;;5048797;28;20037;-67
2023/01/21 04:04:29;;;;;;;56.28;29.88;;;1.20;99.90;;;;;;5051342;28;20040;-67
2023/01/21 04:06:54;;;;;;;54.63;29.48;;;1.80;99.90;;;;;;5048652;28;20215;-67
2023/01/21 04:09:20;;;;;;;62.95;31.95;;;1.00;99.90;;;;;;5048299;28;20057;-67
2023/01/21 04:11:45;;;;;;;58.10;30.55;;;1.70;99.90;;;;;;5048914;28;20406;-67
2023/01/21 04:14:11;;;;;;;59.13;30.77;;;1.70;99.90;;;;;;5048720;28;20143;-68
2023/01/21 04:16:37;;;;;;;64.72;33.88;;;1.60;99.90;;;;;;5022985;28;20037;-66
2023/01/21 04:19:02;;;;;;;60.10;34.30;;;1.90;99.90;;;;;;5032715;28;20049;-66
2023/01/21 04:21:29;;;;;;;61.50;32.90;;;1.60;99.90;;;;;;5051750;28;20052;-66
2023/01/21 04:23:54;;;;;;;60.92;33.40;;;2.20;99.90;;;;;;5068185;28;20087;-67
2023/01/21 04:26:20;;;;;;;56.10;30.85;;;1.30;99.90;;;;;;5056027;28;20090;-67
2023/01/21 04:28:46;;;;;;;64.20;32.80;;;1.30;99.90;;;;;;5048038;28;20124;-67
2023/01/21 04:31:11;;;;;;;64.65;33.08;;;1.90;99.90;;;;;;5048199;28;20063;-67
2023/01/21 04:33:37;;;;;;;58.03;32.53;;;2.00;99.90;;;;;;5048577;28;20033;-67
2023/01/21 04:36:03;;;;;;;59.67;32.67;;;1.80;99.90;;;;;;5038493;28;20029;-67
2023/01/21 04:38:29;;;;;;;63.97;32.95;;;1.40;99.90;;;;;;5047434;28;20041;-68
2023/01/21 04:40:54;;;;;;;56.97;32.33;;;1.50;99.90;;;;;;5063610;28;20125;-67
2023/01/21 04:43:20;;;;;;;53.33;29.55;;;1.70;1.00;;;;;;5022421;28;20029;-67
2023/01/21 04:45:46;;;;;;;57.50;32.58;;;2.20;1.00;;;;;;5030764;28;20114;-67
2023/01/21 04:48:11;;;;;;;55.80;31.17;;;2.10;1.00;;;;;;5045695;28;20459;-66
2023/01/21 04:50:37;;;;;;;53.88;31.58;;;1.40;1.00;;;;;;5050070;28;20120;-68
2023/01/21 04:53:03;;;;;;;104.85;35.05;;;1.70;1.00;;;;;;5041513;28;20029;-68
2023/01/21 04:55:28;;;;;;;65.97;34.55;;;1.70;1.00;;;;;;5048042;28;20047;-67
2023/01/21 04:57:54;;;;;;;64.45;35.65;;;1.90;1.00;;;;;;5046117;28;20124;-66
2023/01/21 05:00:20;;;;;;;64.97;33.90;;;1.30;1.00;;;;;;5046182;28;20532;-66
2023/01/21 05:02:45;;;;;;;60.85;32.95;;;2.00;1.00;;;;;;5027425;28;20502;-66
2023/01/21 05:05:11;;;;;;;64.38;33.38;;;2.20;1.00;;;;;;5039635;28;20045;-67
2023/01/21 05:07:36;;;;;;;62.97;33.25;;;1.40;1.00;;;;;;5055180;28;20136;-67
2023/01/21 05:10:02;;;;;;;62.22;32.67;;;1.20;1.00;;;;;;5054905;28;20040;-68
2023/01/21 05:12:28;;;;;;;60.60;33.28;;;2.30;1.00;;;;;;5033801;28;20998;-67
2023/01/21 05:14:56;;;;;;;63.47;35.95;;;1.30;1.00;;;;;;5042178;28;20032;-67
2023/01/21 05:17:22;;;;;;;68.55;33.03;;;1.60;1.00;;;;;;5032203;28;20045;-67
2023/01/21 05:19:49;;;;;;;68.03;32.65;;;1.60;1.00;;;;;;5040513;28;20494;-67
2023/01/21 05:22:15;;;;;;;55.15;31.65;;;2.40;1.00;;;;;;5042144;28;20435;-67
2023/01/21 05:24:41;;;;;;;63.20;31.38;;;2.20;4.80;;;;;;5046181;28;20080;-67
2023/01/21 05:27:06;;;;;;;60.85;31.80;;;2.30;10.00;;;;;;5029341;28;20105;-67
2023/01/21 05:29:32;;;;;;;58.97;32.03;;;1.60;13.60;;;;;;5050022;28;20040;-66
2023/01/21 05:31:57;;;;;;;62.55;33.42;;;1.50;26.60;;;;;;5052466;28;20557;-67
2023/01/21 05:34:23;;;;;;;132.45;35.35;;;2.00;43.80;;;;;;5030651;28;20072;-67
2023/01/21 05:36:48;;;;;;;63.10;32.67;;;2.00;67.10;;;;;;5033661;28;20041;-66
2023/01/21 05:39:14;;;;;;;65.05;31.20;;;1.90;91.00;;;;;;5057602;28;20124;-65
2023/01/21 05:41:39;;;;;;;60.78;32.55;;;2.20;99.80;;;;;;5067668;28;20088;-66
2023/01/21 05:44:06;;;;;;;61.95;32.28;;;2.00;99.90;;;;;;5051634;28;20045;-67
2023/01/21 05:46:32;;;;;;;66.75;33.33;;;1.90;99.90;;;;;;5063186;28;20489;-67
2023/01/21 05:48:57;;;;;;;59.53;33.70;;;1.50;98.90;;;;;;5049833;28;20029;-67
2023/01/21 05:51:23;;;;;;;63.55;32.35;;;2.20;95.30;;;;;;5035678;28;20033;-67
2023/01/21 05:53:48;;;;;;;54.17;30.70;;;1.70;99.90;;;;;;5065177;28;20170;-67
2023/01/21 05:56:14;;;;;;;50.53;30.98;;;1.50;99.90;;;;;;5067077;28;20044;-68
2023/01/21 05:58:39;;;;;;;65.25;34.75;;;2.60;99.90;;;;;;5057587;28;20045;-67
2023/01/21 06:01:05;;;;;;;64.75;35.10;;;2.70;99.90;;;;;;5049620;28;20039;-67
2023/01/21 06:03:31;;;;;;;59.92;33.10;;;1.90;99.90;;;;;;5038874;28;20395;-67
2023/01/21 06:05:56;;;;;;;62.95;32.13;;;2.30;99.90;;;;;;5029207;28;20045;-67
2023/01/21 06:08:22;;;;;;;65.38;35.08;;;2.90;99.90;;;;;;5041255;28;20064;-67
2023/01/21 06:10:48;;;;;;;61.05;32.33;;;2.90;99.90;;;;;;5043684;28;20124;-67
2023/01/21 06:13:14;;;;;;;1999.90;371.35;;;2.70;99.90;;;;;;5049878;28;20403;-68
2023/01/21 06:15:40;;;;;;;69.10;33.83;;;2.00;1.00;;;;;;5055821;28;20095;-68
2023/01/21 06:18:06;;;;;;;61.72;32.72;;;2.20;1.00;;;;;;5041959;28;20034;-66
2023/01/21 06:20:32;;;;;;;56.25;32.58;;;2.90;1.00;;;;;;5044292;28;20477;-67
2023/01/21 06:22:57;;;;;;;59.50;32.40;;;2.20;1.00;;;;;;5052407;28;20063;-67
2023/01/21 06:25:26;;;;;;;60.88;36.22;;;2.90;5.70;;;;;;5035122;28;20120;-66
2023/01/21 06:27:56;;;;;;;70.45;37.67;;;2.00;1.00;;;;;;5031808;28;20450;-67
2023/01/21 06:30:23;;;;;;;72.82;36.47;;;3.00;1.00;;;;;;5062641;28;20556;-67
2023/01/21 06:32:49;;;;;;;65.93;36.58;;;3.10;12.30;;;;;;5051496;28;20045;-69
2023/01/21 06:35:15;;;;;;;69.88;40.47;;;2.10;41.50;;;;;;5033160;28;20545;-68
2023/01/21 06:37:40;;;;;;;73.80;38.20;;;3.10;98.20;;;;;;5047813;28;20033;-68
2023/01/21 06:40:09;;;;;;;75.38;40.13;;;3.40;99.90;;;;;;5042909;28;20403;-68
2023/01/21 06:42:35;;;;;;;73.90;39.00;;;2.10;99.90;;;;;;5033584;28;20087;-68
2023/01/21 06:45:01;;;;;;;71.13;39.40;;;2.60;99.90;;;;;;5042919;28;20123;-68
2023/01/21 06:47:26;;;;;;;70.20;40.05;;;2.10;99.90;;;;;;5051606;28;20041;-68
2023/01/21 06:49:52;;;;;;;74.00;41.00;;;2.60;99.90;;;;;;5035558;28;20506;-68
2023/01/21 06:52:17;;;;;;;68.85;39.38;;;2.70;99.90;;;;;;5038746;28;20112;-68
2023/01/21 06:54:43;;;;;;;81.88;42.97;;;3.40;99.90;;;;;;5033363;28;20040;-68
2023/01/21 06:57:09;;;;;;;75.05;41.63;;;2.30;99.90;;;;;;5014715;28;20124;-67
2023/01/21 06:59:34;;;;;;;75.22;40.20;;;2.40;99.90;;;;;;5050324;28;20388;-67
2023/01/21 07:02:00;;;;;;;73.85;38.45;;;2.10;99.90;;;;;;5053516;28;20059;-67
2023/01/21 07:04:27;;;;;;;77.47;40.33;;;2.20;99.90;;;;;;5041929;28;20033;-67
2023/01/21 07:06:53;;;;;;;73.97;40.63;;;2.50;99.90;;;;;;5061894;28;20053;-67
2023/01/21 07:09:19;;;;;;;81.32;40.67;;;2.00;99.90;;;;;;5068878;28;20103;-68
2023/01/21 07:11:44;;;;;;;79.30;41.58;;;2.70;99.90;;;;;;5034355;28;20037;-68
2023/01/21 07:14:10;;;;;;;75.00;43.47;;;2.80;99.90;;;;;;5032087;28;20402;-68
2023/01/21 07:16:36;;;;;;;76.00;41.83;;;2.10;99.90;;;;;;5044338;28;20040;-69
2023/01/21 07:19:02;;;;;;;79.32;44.17;;;2.20;99.90;;;;;;5069531;28;20479;-69
2023/01/21 07:21:28;;;;;;;78.25;43.67;;;2.10;1.00;;;;;;5020461;28;20107;-69
2023/01/21 07:23:54;;;;;;;77.72;40.90;;;3.10;1.00;;;;;;5034300;28;20037;-69
2023/01/21 07:26:20;;;;;;;78.20;40.70;;;2.00;1.00;;;;;;5034005;28;20037;-68
2023/01/21 07:28:45;;;;;;;72.68;40.05;;;2.10;1.00;;;;;;5032748;28;20191;-68
2023/01/21 07:31:12;;;;;;;75.18;41.53;;;3.10;1.00;;;;;;5029580;28;20044;-68
2023/01/21 07:33:38;;;;;;;86.85;41.50;;;2.20;1.00;;;;;;5037234;28;20473;-68
2023/01/21 07:36:04;;;;;;;89.55;43.20;;;3.20;1.00;;;;;;5064710;28;20088;-67
2023/01/21 07:38:30;;;;;;;82.22;42.00;;;2.90;1.00;;;;;;5036051;28;20038;-68
2023/01/21 07:40:55;;;;;;;82.43;42.47;;;3.00;1.00;;;;;;5043347;28;20474;-68
2023/01/21 07:43:21;;;;;;;85.53;42.03;;;2.30;8.40;;;;;;5056346;28;20379;-68
2023/01/21 07:45:47;;;;;;;76.95;41.83;;;2.70;14.70;;;;;;5049182;28;20040;-67
2023/01/21 07:48:12;;;;;;;85.10;41.65;;;1.80;1.00;;;;;;5017516;28;20044;-68
2023/01/21 07:50:38;;;;;;;76.90;39.50;;;1.70;1.00;;;;;;5034362;28;20129;-68
2023/01/21 07:53:03;;;;;;;79.05;43.63;;;1.80;1.00;;;;;;5042079;28;20045;-69
2023/01/21 07:55:30;;;;;;;77.30;41.05;;;2.20;1.00;;;;;;5031904;28;20398;-68
2023/01/21 07:57:56;;;;;;;85.60;42.35;;;2.70;21.00;;;;;;5031694;28;20099;-69
2023/01/21 08:00:22;;;;;;;78.63;40.63;;;2.00;74.40;;;;;;5036421;28;20086;-69
2023/01/21 08:02:55;;;;;;;76.63;42.08;;;3.10;99.90;;;;;;5039951;28;20151;-68
2023/01/21 08:05:21;;;;;;;74.22;38.65;;;3.10;99.90;;;;;;5048408;28;20052;-69
2023/01/21 08:07:47;;;;;;;84.93;41.92;;;3.10;99.90;;;;;;5017293;28;20057;-68
2023/01/21 08:10:14;;;;;;;75.32;42.20;;;1.80;99.90;;;;;;5036438;28;20029;-68
2023/01/21 08:12:42;;;;;;;76.93;39.95;;;3.00;99.90;;;;;;5041189;28;20052;-68
2023/01/21 08:15:08;;;;;;;76.72;42.72;;;1.80;99.90;;;;;;5033546;28;20087;-68
2023/01/21 08:17:38;;;;;;;82.70;40.33;;;3.00;99.90;;;;;;5042200;28;20433;-68
2023/01/21 08:20:04;;;;;;;102.55;43.55;;;2.30;99.90;;;;;;5032731;28;20038;-68
2023/01/21 08:22:29;;;;;;;86.68;44.45;;;2.70;99.90;;;;;;5058587;28;20037;-68
2023/01/21 08:24:55;;;;;;;76.10;40.88;;;3.00;99.90;;;;;;5029075;28;20099;-68
2023/01/21 08:27:21;;;;;;;84.32;41.70;;;2.50;99.90;;;;;;5030206;28;20040;-68
2023/01/21 08:29:47;;;;;;;82.03;41.28;;;2.10;99.90;;;;;;5039808;28;20033;-67
2023/01/21 08:32:13;;;;;;;86.40;41.38;;;1.70;99.90;;;;;;5028719;28;20079;-67
2023/01/21 08:34:38;;;;;;;81.03;40.72;;;2.70;99.90;;;;;;5033480;28;20388;-68
2023/01/21 08:37:04;;;;;;;70.38;39.50;;;2.10;99.90;;;;;;5013554;28;20029;-69
2023/01/21 08:39:29;;;;;;;76.93;41.50;;;2.80;99.90;;;;;;5027973;28;20041;-69
2023/01/21 08:41:55;;;;;;;77.70;39.63;;;1.60;99.90;;;;;;5013532;28;20390;-69
2023/01/21 08:44:20;;;;;;;85.35;44.45;;;1.90;99.90;;;;;;5033507;28;20037;-69
2023/01/21 08:46:46;;;;;;;89.25;44.85;;;3.00;99.90;;;;;;5019997;28;20037;-69
2023/01/21 08:49:12;;;;;;;83.47;42.45;;;1.70;1.00;;;;;;5033663;28;20038;-69
2023/01/21 08:51:37;;;;;;;75.90;39.15;;;3.00;1.00;;;;;;5025041;28;20037;-69
2023/01/21 08:54:04;;;;;;;68.88;40.05;;;1.60;1.00;;;;;;5027900;28;20946;-68
2023/01/21 08:56:29;;;;;;;71.40;38.53;;;3.00;99.90;;;;;;5041335;28;20044;-68
2023/01/21 08:58:56;;;;;;;91.97;41.58;;;2.50;99.90;;;;;;5045221;28;20128;-68
2023/01/21 09:01:23;;;;;;;76.32;41.00;;;1.90;1.00;;;;;;5015894;28;20041;-68
2023/01/21 09:03:56;;;;;;;78.75;42.10;;;2.20;1.00;;;;;;5043791;28;20052;-69
2023/01/21 09:06:23;;;;;;;86.05;42.28;;;2.10;1.00;;;;;;5040224;28;20500;-68
2023/01/21 09:08:49;;;;;;;85.22;41.42;;;2.10;1.00;;;;;;5030089;28;20059;-67
2023/01/21 09:11:15;;;;;;;85.20;42.10;;;2.30;1.00;;;;;;5037499;28;20025;-68
2023/01/21 09:13:43;;;;;;;88.00;43.40;;;2.20;1.00;;;;;;5045348;28;20033;-69
2023/01/21 09:16:12;;;;;;;83.15;41.95;;;1.90;20.00;;;;;;5028260;28;20041;-69
2023/01/21 09:18:37;;;;;;;82.97;42.15;;;1.60;83.40;;;;;;5042100;28;20037;-69
2023/01/21 09:21:05;;;;;;;91.63;43.05;;;2.70;99.90;;;;;;5040943;28;20518;-69
2023/01/21 09:23:33;;;;;;;88.13;45.30;;;2.40;99.90;;;;;;5012437;28;20045;-69
2023/01/21 09:26:04;;;;;;;76.35;41.92;;;1.90;99.90;;;;;;5029816;28;20510;-70
2023/01/21 09:28:33;;;;;;;80.22;41.00;;;2.10;99.90;;;;;;5046342;28;20069;-69
2023/01/21 09:31:01;;;;;;;81.65;41.80;;;1.90;99.90;;;;;;5010801;28;20410;-69
2023/01/21 09:33:28;;;;;;;78.93;40.80;;;2.20;99.90;;;;;;5044019;28;20041;-69
2023/01/21 09:35:55;;;;;;;70.10;40.22;;;2.50;99.90;;;;;;5027809;28;20034;-69
2023/01/21 09:38:21;;;;;;;89.97;43.47;;;2.60;99.90;;;;;;5022919;28;20175;-69
2023/01/21 09:40:48;;;;;;;80.65;43.65;;;2.80;1.00;;;;;;5030919;28;20507;-68
2023/01/21 09:43:27;;;;;;;76.93;42.40;;;2.40;1.00;;;;;;5030394;28;20047;-69
2023/01/21 09:45:56;;;;;;;82.63;42.47;;;3.30;1.00;;;;;;5063530;28;20077;-69
2023/01/21 09:48:36;;;;;;;86.10;43.13;;;2.20;1.00;;;;;;5028905;28;20172;-69
2023/01/21 09:51:11;;;;;;;74.13;42.25;;;2.90;1.00;;;;;;5051240;28;20092;-69
2023/01/21 09:53:47;;;;;;;80.88;43.58;;;2.60;1.00;;;;;;5013943;28;20080;-69
2023/01/21 09:56:36;;;;;;;;;;;3.10;1.00;;;;;;5045881;28;20068;-69
2023/01/21 09:59:16;;;;;;;80.93;44.35;;;2.00;5.00;;;;;;5022415;28;19917;-70
2023/01/21 10:01:42;;;;;;;89.68;47.55;;;3.60;99.90;;;;;;5038559;28;20045;-71
2023/01/21 10:04:23;;;;;;;84.97;47.92;;;3.80;99.90;;;;;;5048668;28;20185;-71
2023/01/21 10:07:10;;;;;;;89.30;47.10;;;3.90;99.90;;;;;;5048855;28;20065;-71
2023/01/21 10:10:05;;;;;;;79.90;43.78;;;2.50;1.00;;;;;;5050177;28;20084;-71
2023/01/21 10:12:46;;;;;;;75.93;43.40;;;3.80;1.00;;;;;;5045345;28;20048;-72
2023/01/21 10:15:52;;;;;;;75.10;42.30;;;2.70;1.00;;;;;;5047039;28;20171;-72
2023/01/21 10:18:27;;;;;;;79.38;46.47;;;2.60;1.00;;;;;;5036056;28;20156;-72
2023/01/21 10:21:12;;;;;;;78.88;44.80;;;2.70;1.00;;;;;;5014620;28;20117;-71
2023/01/21 10:23:42;;;;;;;81.07;45.78;;;3.80;1.00;;;;;;5043710;28;20559;-72
2023/01/21 10:26:11;;;;;;;82.93;46.25;;;3.70;16.90;;;;;;5045653;28;20045;-72
2023/01/21 10:28:54;;;;;;;83.60;47.45;;;3.90;57.40;;;;;;5034769;28;20491;-73
2023/01/21 10:31:23;;;;;;;84.38;46.70;;;3.90;92.70;;;;;;5060824;28;20037;-73
2023/01/21 10:33:49;;;;;;;75.70;45.65;;;3.40;99.90;;;;;;5039853;28;20037;-73
2023/01/21 10:36:26;;;;;;;77.20;45.65;;;3.80;99.90;;;;;;5034963;28;20106;-72
2023/01/21 10:39:07;;;;;;;70.07;44.38;;;3.80;99.90;;;;;;5025336;28;20033;-68
2023/01/21 10:42:04;;;;;;;69.80;43.33;;;2.80;1.00;;;;;;5013845;28;20073;-74
2023/01/21 10:44:54;;;;;;;68.30;42.35;;;3.80;1.00;;;;;;5042630;28;20135;-73
2023/01/21 10:47:41;;;;;;;73.60;43.15;;;4.20;40.00;;;;;;5030547;28;20045;-73
2023/01/21 10:50:06;;;;;;;;;;;4.20;96.90;;;;;;5046258;28;20053;-73
2023/01/21 10:52:51;;;;;;;68.53;40.07;;;3.20;99.90;;;;;;5030289;28;19916;-73
2023/01/21 10:56:08;;;;;;;65.40;38.55;;;3.80;99.90;;;;;;5034475;28;20033;-73
2023/01/21 10:58:55;;;;;;;66.22;39.70;;;4.00;99.90;;;;;;5034314;28;20061;-72
2023/01/21 11:01:34;;;;;;;65.40;38.78;;;3.40;99.90;;;;;;5028831;28;20044;-72
2023/01/21 11:04:10;;;;;;;61.75;36.80;;;3.60;99.90;;;;;;5032445;28;20034;-72
2023/01/21 11:06:36;;;;;;;59.80;36.58;;;3.40;99.90;;;;;;5032006;28;20090;-72
2023/01/21 11:09:04;;;;;;;55.90;34.63;;;4.50;99.90;;;;;;5026433;28;20041;-72
2023/01/21 11:11:33;;;;;;;53.75;34.10;;;4.30;1.00;;;;;;5016779;28;20561;-72
2023/01/21 11:13:59;;;;;;;52.88;34.53;;;4.30;1.00;;;;;;5051197;28;20060;-73
2023/01/21 11:16:42;;;;;;;59.13;38.30;;;4.60;1.00;;;;;;5029274;28;20033;-72
2023/01/21 11:19:14;;;;;;;56.70;37.00;;;4.70;63.60;;;;;;5034298;28;20053;-72
2023/01/21 11:21:40;;;;;;;62.63;37.17;;;4.80;99.90;;;;;;5049643;28;20032;-72
2023/01/21 11:24:23;;;;;;;58.65;35.92;;;5.40;99.90;;;;;;5040342;28;20384;-72
2023/01/21 11:26:55;;;;;;;63.92;38.53;;;4.70;99.90;;;;;;5034026;28;20041;-72
2023/01/21 11:29:22;;;;;;;61.13;38.95;;;5.30;1.00;;;;;;5045822;28;20065;-74
2023/01/21 11:32:15;;;;;;;57.83;38.17;;;5.40;1.00;;;;;;5045777;28;20502;-75
2023/01/21 11:34:46;;;;;;;50.38;34.65;;;4.70;1.00;;;;;;5011299;28;20122;-74
2023/01/21 11:37:22;;;;;;;47.55;32.38;;;5.10;1.00;;;;;;5050872;28;20044;-74
2023/01/21 11:40:02;;;;;;;48.95;34.22;;;4.80;1.00;;;;;;5036355;28;20430;-73
2023/01/21 11:42:28;;;;;;;50.47;34.78;;;5.60;1.00;;;;;;5036900;28;20060;-74
2023/01/21 11:44:55;;;;;;;53.78;36.35;;;5.30;1.00;;;;;;5045579;28;20072;-73
2023/01/21 11:47:39;;;;;;;49.63;32.65;;;5.50;1.00;;;;;;5030799;28;20570;-73
2023/01/21 11:50:24;;;;;;;50.65;34.85;;;5.30;1.00;;;;;;5030337;28;20103;-73
2023/01/21 11:53:17;;;;;;;45.60;29.73;;;5.20;1.00;;;;;;5028187;28;20574;-73
2023/01/21 11:55:49;;;;;;;44.03;32.15;;;5.50;1.00;;;;;;5027748;28;20045;-72
2023/01/21 11:58:34;;;;;;;41.33;30.65;;;4.90;99.90;;;;;;5036954;28;20527;-72
2023/01/21 12:01:04;;;;;;;42.15;29.75;;;4.90;99.90;;;;;;5030945;28;20064;-71
2023/01/21 12:03:34;;;;;;;29.70;22.10;;;5.10;99.90;;;;;;5026118;28;20080;-72
2023/01/21 12:06:01;;;;;;;28.48;19.75;;;5.50;99.90;;;;;;5015831;28;20064;-72
2023/01/21 12:08:30;;;;;;;35.55;23.75;;;5.80;99.90;;;;;;5020771;28;20038;-71
2023/01/21 12:11:00;;;;;;;40.10;25.52;;;5.60;1.00;;;;;;5056014;28;20040;-70
2023/01/21 12:13:44;;;;;;;38.05;26.52;;;5.40;1.00;;;;;;5054393;28;20502;-71
2023/01/21 12:16:39;;;;;;;30.20;20.77;;;5.60;99.90;;;;;;5027788;28;20448;-71
2023/01/21 12:19:43;;;;;;;24.75;17.92;;;5.70;1.00;;;;;;5031858;28;20046;-69
2023/01/21 12:22:39;;;;;;;17.40;13.43;;;5.60;99.90;;;;;;4998919;28;20123;-70
2023/01/21 12:25:14;;;;;;;27.88;19.02;;;5.60;1.00;;;;;;4981100;28;20084;-70
2023/01/21 12:27:54;;;;;;;26.55;18.38;;;5.40;99.90;;;;;;5020314;28;20045;-70
2023/01/21 12:30:53;;;;;;;22.92;15.80;;;5.70;47.10;;;;;;5050698;28;20053;-70
2023/01/21 12:33:39;;;;;;;20.83;15.90;;;5.50;99.90;;;;;;5047402;28;20048;-70
2023/01/21 12:36:14;;;;;;;20.33;16.15;;;5.60;15.50;;;;;;5026583;28;20602;-70
2023/01/21 12:38:49;;;;;;;22.67;16.85;;;5.50;1.00;;;;;;5031235;28;20119;-70
2023/01/21 12:41:21;;;;;;;23.00;16.48;;;5.30;99.90;;;;;;5008771;28;20103;-70
2023/01/21 12:43:53;;;;;;;23.45;17.27;;;5.30;86.90;;;;;;5036085;28;20052;-70
2023/01/21 12:46:23;;;;;;;23.20;17.13;;;5.30;1.00;;;;;;5014125;28;20040;-71
2023/01/21 12:49:05;;;;;;;24.05;17.70;;;5.40;1.00;;;;;;5057774;28;20048;-70
2023/01/21 12:51:39;;;;;;;22.42;16.33;;;5.50;99.90;;;;;;5025388;28;20045;-70
2023/01/21 12:54:30;;;;;;;22.38;16.45;;;5.30;52.20;;;;;;5059996;28;20087;-70
2023/01/21 12:57:13;;;;;;;22.75;16.70;;;5.50;1.00;;;;;;5051249;28;20034;-70
2023/01/21 13:00:02;;;;;;;23.17;16.52;;;5.30;99.90;;;;;;5047090;28;20048;-70
2023/01/21 13:02:58;;;;;;;21.80;15.93;;;5.50;99.90;;;;;;5048115;28;20076;-70